Time;durP1;ratioP1;P1;durP2;ratioP2;P2;SDS_P1;SDS_P2;PMS_P1;PMS_P2;Temp;Humidity;BMP_temperature;BMP_pressure;BME280_temperature;BME280_humidity;BME280_pressure;Samples;Min_cycle;Max_cycle;Signal;HPM_P1;HPM_P2
2023/05/20 00:00:31;;;;;;;2.73;1.63;;;9.90;99.90;;;;;;5016621;28;20190;-49
2023/05/20 00:02:58;;;;;;;1.93;1.57;;;9.90;99.90;;;;;;5017084;28;20223;-50
2023/05/20 00:05:24;;;;;;;3.77;1.70;;;9.80;99.90;;;;;;5017263;28;20682;-49
2023/05/20 00:07:49;;;;;;;2.13;1.30;;;9.80;99.90;;;;;;5020879;28;20510;-49
2023/05/20 00:10:15;;;;;;;2.90;1.77;;;9.80;99.90;;;;;;5020228;28;20250;-50
2023/05/20 00:12:41;;;;;;;1.50;1.40;;;9.80;99.90;;;;;;5015874;28;20184;-49
2023/05/20 00:15:07;;;;;;;5.83;1.97;;;9.80;99.90;;;;;;5017135;28;20548;-51
2023/05/20 00:17:33;;;;;;;3.00;1.60;;;9.70;99.90;;;;;;5016157;28;20219;-49
2023/05/20 00:19:59;;;;;;;2.57;1.90;;;9.70;99.90;;;;;;5016656;28;20804;-50
2023/05/20 00:22:24;;;;;;;2.93;1.53;;;9.70;99.90;;;;;;5016768;28;20247;-49
2023/05/20 00:24:50;;;;;;;7.03;2.00;;;9.70;99.90;;;;;;5019839;28;20470;-49
2023/05/20 00:27:16;;;;;;;2.10;1.80;;;9.70;99.90;;;;;;5016288;28;20667;-50
2023/05/20 00:29:41;;;;;;;2.90;2.10;;;9.60;99.90;;;;;;5016696;28;20443;-49
2023/05/20 00:32:07;;;;;;;2.80;1.60;;;9.60;99.90;;;;;;5017083;28;20280;-49
2023/05/20 00:34:33;;;;;;;1.93;1.73;;;9.60;99.90;;;;;;5015913;28;20204;-49
2023/05/20 00:36:58;;;;;;;2.27;1.57;;;9.70;99.90;;;;;;5016653;28;20222;-49
2023/05/20 00:39:24;;;;;;;5.80;1.57;;;9.70;99.90;;;;;;5016204;28;20218;-48
2023/05/20 00:41:49;;;;;;;3.10;2.00;;;9.70;99.90;;;;;;5020271;28;20195;-49
2023/05/20 00:44:17;;;;;;;2.23;1.43;;;9.60;99.90;;;;;;5019167;28;20192;-49
2023/05/20 00:46:43;;;;;;;2.53;1.50;;;9.60;99.90;;;;;;5021183;28;20198;-49
2023/05/20 00:49:09;;;;;;;3.20;1.77;;;9.70;99.90;;;;;;5016059;28;20935;-49
2023/05/20 00:51:35;;;;;;;1.70;1.40;;;9.70;99.90;;;;;;5015211;28;20535;-49
2023/05/20 00:54:01;;;;;;;3.93;1.50;;;9.60;99.90;;;;;;5016520;28;20187;-49
2023/05/20 00:56:28;;;;;;;2.20;1.37;;;9.60;99.90;;;;;;5015860;28;20584;-49
2023/05/20 00:58:55;;;;;;;2.70;1.73;;;9.60;99.90;;;;;;5015949;28;20845;-49
2023/05/20 01:01:20;;;;;;;3.67;1.80;;;9.50;99.90;;;;;;5019342;28;20792;-49
2023/05/20 01:03:47;;;;;;;3.80;1.80;;;9.50;99.90;;;;;;5015104;28;20473;-49
2023/05/20 01:06:13;;;;;;;1.77;1.67;;;9.50;99.90;;;;;;5014943;28;20192;-49
2023/05/20 01:08:39;;;;;;;3.37;1.50;;;9.60;99.90;;;;;;5014313;28;20461;-49
2023/05/20 01:11:12;;;;;;;4.33;1.67;;;9.60;99.90;;;;;;5014972;28;20196;-49
2023/05/20 01:13:56;;;;;;;4.43;2.03;;;9.50;99.90;;;;;;5014693;28;20950;-49
2023/05/20 01:16:23;;;;;;;3.10;1.60;;;9.50;99.90;;;;;;5014468;28;20442;-50
2023/05/20 01:18:54;;;;;;;2.00;1.37;;;9.40;99.90;;;;;;5015008;28;20442;-50
2023/05/20 01:21:20;;;;;;;1.53;1.43;;;9.50;99.90;;;;;;5018165;28;20442;-49
2023/05/20 01:23:46;;;;;;;1.60;1.20;;;9.40;99.90;;;;;;5018201;28;20479;-49
2023/05/20 01:26:12;;;;;;;3.60;2.00;;;9.40;99.90;;;;;;5018828;28;20451;-49
2023/05/20 01:28:38;;;;;;;2.87;1.80;;;9.30;99.90;;;;;;5026060;28;20536;-49
2023/05/20 01:31:18;;;;;;;4.20;1.90;;;9.30;99.90;;;;;;5018516;28;20267;-49
2023/05/20 01:33:46;;;;;;;5.10;1.93;;;9.30;99.90;;;;;;5019006;28;20435;-49
2023/05/20 01:36:12;;;;;;;3.27;1.80;;;9.30;99.90;;;;;;5017901;28;20523;-49
2023/05/20 01:38:38;;;;;;;2.67;1.50;;;9.30;99.90;;;;;;5018656;28;20443;-50
2023/05/20 01:41:06;;;;;;;3.90;1.90;;;9.20;99.90;;;;;;5020171;28;20438;-49
2023/05/20 01:43:31;;;;;;;1.80;1.60;;;9.20;99.90;;;;;;5019479;28;20906;-50
2023/05/20 01:45:57;;;;;;;5.70;1.60;;;9.20;99.90;;;;;;5018169;28;20517;-49
2023/05/20 01:48:23;;;;;;;2.17;1.90;;;9.20;99.90;;;;;;5018542;28;20199;-49
2023/05/20 01:50:48;;;;;;;4.03;1.83;;;9.20;99.90;;;;;;5018110;28;20232;-49
2023/05/20 01:53:14;;;;;;;2.13;1.70;;;9.20;99.90;;;;;;5018132;28;20199;-50
2023/05/20 01:55:39;;;;;;;2.20;1.80;;;9.20;99.90;;;;;;5018675;28;20191;-50
2023/05/20 01:58:05;;;;;;;2.00;1.80;;;9.10;99.90;;;;;;5017482;28;20223;-49
2023/05/20 02:00:33;;;;;;;3.90;1.80;;;9.20;99.90;;;;;;5018478;28;20184;-49
2023/05/20 02:02:59;;;;;;;1.70;1.40;;;9.10;99.90;;;;;;5032256;28;20593;-49
2023/05/20 02:05:24;;;;;;;2.97;1.90;;;9.10;99.90;;;;;;5017508;28;20442;-50
2023/05/20 02:07:50;;;;;;;4.73;1.77;;;9.10;99.90;;;;;;5021436;28;20712;-49
2023/05/20 02:10:15;;;;;;;2.40;1.70;;;9.10;99.90;;;;;;5018513;28;20250;-50
2023/05/20 02:12:41;;;;;;;2.50;1.67;;;9.10;99.90;;;;;;5017525;28;20226;-50
2023/05/20 02:15:07;;;;;;;5.70;1.87;;;9.10;99.90;;;;;;5017007;28;20218;-50
2023/05/20 02:17:33;;;;;;;3.23;1.67;;;9.10;99.90;;;;;;5018133;28;20493;-50
2023/05/20 02:19:58;;;;;;;5.00;1.70;;;9.10;99.90;;;;;;5017056;28;20682;-49
2023/05/20 02:22:24;;;;;;;3.20;1.93;;;9.10;99.90;;;;;;5017353;28;20255;-51
2023/05/20 02:24:50;;;;;;;2.50;1.60;;;9.10;1.00;;;;;;5018113;28;20203;-49
2023/05/20 02:27:15;;;;;;;4.87;1.73;;;9.10;1.00;;;;;;5017442;28;20188;-50
2023/05/20 02:29:43;;;;;;;3.30;1.90;;;9.10;1.00;;;;;;5017562;28;20282;-50
2023/05/20 02:32:08;;;;;;;4.90;1.80;;;9.10;1.00;;;;;;5017822;28;20196;-50
2023/05/20 02:34:34;;;;;;;6.40;1.80;;;9.10;1.00;;;;;;5016658;28;20445;-49
2023/05/20 02:37:00;;;;;;;4.50;1.80;;;9.00;1.00;;;;;;5016886;28;20200;-50
2023/05/20 02:39:27;;;;;;;2.77;1.70;;;9.00;1.00;;;;;;5017377;28;20195;-49
2023/05/20 02:41:52;;;;;;;3.60;2.00;;;9.00;1.00;;;;;;5019276;28;20663;-50
2023/05/20 02:44:18;;;;;;;2.47;1.57;;;9.00;1.00;;;;;;5018667;28;20529;-51
2023/05/20 02:46:44;;;;;;;6.23;1.80;;;9.00;1.00;;;;;;5017017;28;20227;-50
2023/05/20 02:49:09;;;;;;;7.07;1.60;;;9.00;1.00;;;;;;5017053;28;20286;-50
2023/05/20 02:51:35;;;;;;;2.60;1.87;;;9.00;1.00;;;;;;5016340;28;20247;-49
2023/05/20 02:54:01;;;;;;;2.90;1.87;;;8.90;1.00;;;;;;5017265;28;20187;-50
2023/05/20 02:56:27;;;;;;;5.63;1.90;;;8.90;1.00;;;;;;5017125;28;20192;-50
2023/05/20 02:58:53;;;;;;;2.50;1.63;;;8.90;1.00;;;;;;5016246;28;20270;-50
2023/05/20 03:01:18;;;;;;;4.63;2.47;;;8.80;1.00;;;;;;5017419;28;20467;-50
2023/05/20 03:03:44;;;;;;;4.33;1.60;;;8.80;1.00;;;;;;5016175;28;20223;-49
2023/05/20 03:06:09;;;;;;;2.23;1.57;;;8.80;1.00;;;;;;5016392;28;20199;-50
2023/05/20 03:08:35;;;;;;;3.17;1.60;;;8.80;1.00;;;;;;5016856;28;20188;-49
2023/05/20 03:11:01;;;;;;;2.10;1.87;;;8.80;1.00;;;;;;5016769;28;20186;-50
2023/05/20 03:13:26;;;;;;;2.90;1.60;;;8.80;1.00;;;;;;5016319;28;20238;-49
2023/05/20 03:15:52;;;;;;;3.27;1.60;;;8.70;1.00;;;;;;5026500;28;20522;-50
2023/05/20 03:18:17;;;;;;;5.33;1.80;;;8.70;1.00;;;;;;5016486;28;20188;-50
2023/05/20 03:20:43;;;;;;;5.30;1.60;;;8.70;10.90;;;;;;5015692;28;20192;-50
2023/05/20 03:23:09;;;;;;;5.00;1.80;;;8.70;27.40;;;;;;5016238;28;20222;-49
2023/05/20 03:25:36;;;;;;;2.17;1.60;;;8.70;16.90;;;;;;5015910;28;20198;-49
2023/05/20 03:28:01;;;;;;;2.07;1.73;;;8.70;27.90;;;;;;5015952;28;20449;-50
2023/05/20 03:30:27;;;;;;;4.13;1.70;;;8.70;37.90;;;;;;5016520;28;20805;-50
2023/05/20 03:32:55;;;;;;;2.17;1.60;;;8.80;30.10;;;;;;5016850;28;20191;-50
2023/05/20 03:35:20;;;;;;;8.07;2.27;;;8.80;25.60;;;;;;5016205;28;20191;-50
2023/05/20 03:37:46;;;;;;;3.43;1.90;;;8.80;37.20;;;;;;5017402;28;20493;-50
2023/05/20 03:40:11;;;;;;;4.50;1.90;;;8.90;95.10;;;;;;5016527;28;20192;-50
2023/05/20 03:42:38;;;;;;;4.80;2.20;;;8.90;99.90;;;;;;5017060;28;20270;-50
2023/05/20 03:45:04;;;;;;;6.90;2.10;;;8.90;99.90;;;;;;5018232;28;20208;-50
2023/05/20 03:47:29;;;;;;;3.23;1.90;;;9.00;99.90;;;;;;5015475;28;20434;-50
2023/05/20 03:49:55;;;;;;;5.60;1.93;;;9.00;99.90;;;;;;5015527;28;20491;-51
2023/05/20 03:52:21;;;;;;;3.17;1.67;;;9.00;99.90;;;;;;5016454;28;20207;-50
2023/05/20 03:54:46;;;;;;;4.87;2.10;;;9.10;99.90;;;;;;5016116;28;20180;-50
2023/05/20 03:57:12;;;;;;;4.30;2.07;;;9.10;99.90;;;;;;5015640;28;20184;-50
2023/05/20 03:59:37;;;;;;;7.27;2.10;;;9.20;99.90;;;;;;5015641;28;20899;-50
2023/05/20 04:02:05;;;;;;;3.57;1.87;;;9.20;99.90;;;;;;5019134;28;20188;-50
2023/05/20 04:04:31;;;;;;;3.80;1.87;;;9.30;99.90;;;;;;5015334;28;20229;-51
2023/05/20 04:06:59;;;;;;;3.10;2.10;;;9.30;99.90;;;;;;5014688;28;20521;-51
2023/05/20 04:09:25;;;;;;;5.17;2.03;;;9.40;99.90;;;;;;5018937;28;20283;-50
2023/05/20 04:11:51;;;;;;;4.37;1.83;;;9.50;99.90;;;;;;5016638;28;20469;-50
2023/05/20 04:14:16;;;;;;;2.60;2.00;;;9.50;99.90;;;;;;5015618;28;20821;-50
2023/05/20 04:16:43;;;;;;;4.17;1.87;;;9.50;99.90;;;;;;5015287;28;20192;-50
2023/05/20 04:19:09;;;;;;;4.53;1.80;;;9.60;99.90;;;;;;5015675;28;20200;-50
2023/05/20 04:21:35;;;;;;;4.17;1.70;;;9.70;99.90;;;;;;5014716;28;20799;-50
2023/05/20 04:24:00;;;;;;;7.57;2.17;;;9.70;99.90;;;;;;5014980;28;20227;-51
2023/05/20 04:26:26;;;;;;;5.43;1.90;;;9.70;99.90;;;;;;5015130;28;20195;-50
2023/05/20 04:28:52;;;;;;;4.40;2.00;;;9.80;99.90;;;;;;5015603;28;20219;-51
2023/05/20 04:31:17;;;;;;;7.10;1.97;;;9.80;99.90;;;;;;5018549;28;20188;-50
2023/05/20 04:33:43;;;;;;;4.77;2.10;;;9.90;99.90;;;;;;5023966;28;20274;-50
2023/05/20 04:36:10;;;;;;;8.30;1.80;;;9.90;99.90;;;;;;5018185;28;20187;-50
2023/05/20 04:38:37;;;;;;;8.13;1.90;;;9.90;99.90;;;;;;5015343;28;20184;-50
2023/05/20 04:41:04;;;;;;;4.63;1.77;;;10.00;99.90;;;;;;5014982;28;20470;-50
2023/05/20 04:43:29;;;;;;;2.43;1.70;;;10.00;99.90;;;;;;5017398;28;20485;-50
2023/05/20 04:46:00;;;;;;;4.33;1.87;;;10.10;99.90;;;;;;5015933;28;20430;-51
2023/05/20 04:48:25;;;;;;;10.03;2.07;;;10.20;99.90;;;;;;5014972;28;20275;-51
2023/05/20 04:50:51;;;;;;;6.33;2.30;;;10.20;99.90;;;;;;5014388;28;20573;-50
2023/05/20 04:53:18;;;;;;;2.70;1.50;;;10.30;99.90;;;;;;5015250;28;20279;-50
2023/05/20 04:55:45;;;;;;;10.93;2.17;;;10.30;99.90;;;;;;5018538;28;20179;-50
2023/05/20 04:58:14;;;;;;;7.10;2.20;;;10.40;99.90;;;;;;5014309;28;20445;-51
2023/05/20 05:00:44;;;;;;;5.17;1.90;;;10.60;99.90;;;;;;5018251;28;20457;-50
2023/05/20 05:03:11;;;;;;;6.20;2.17;;;10.70;99.90;;;;;;5015481;28;20814;-50
2023/05/20 05:05:38;;;;;;;8.50;2.00;;;10.80;99.90;;;;;;5015200;28;20430;-50
2023/05/20 05:08:04;;;;;;;3.80;1.73;;;10.90;99.90;;;;;;5014511;28;20431;-50
2023/05/20 05:10:30;;;;;;;5.07;2.40;;;11.00;99.90;;;;;;5014812;28;20521;-51
2023/05/20 05:12:56;;;;;;;3.37;1.70;;;11.00;98.60;;;;;;5021763;28;20537;-50
2023/05/20 05:15:21;;;;;;;4.83;2.40;;;11.10;92.90;;;;;;5015716;28;20736;-50
2023/05/20 05:17:47;;;;;;;7.63;2.30;;;11.30;81.80;;;;;;5014171;28;20619;-50
2023/05/20 05:20:13;;;;;;;8.47;1.90;;;11.40;31.60;;;;;;5014650;28;20600;-50
2023/05/20 05:22:40;;;;;;;6.77;2.60;;;11.40;1.00;;;;;;5014594;28;20212;-50
2023/05/20 05:25:06;;;;;;;4.30;2.00;;;11.60;1.00;;;;;;5014133;28;20561;-50
2023/05/20 05:27:32;;;;;;;4.80;2.10;;;11.70;1.00;;;;;;5014749;28;20926;-50
2023/05/20 05:29:57;;;;;;;6.20;2.13;;;11.90;1.00;;;;;;5013982;28;20512;-51
2023/05/20 05:32:23;;;;;;;2.80;1.70;;;12.10;1.00;;;;;;5014332;28;20183;-50
2023/05/20 05:34:49;;;;;;;3.07;1.93;;;12.30;1.00;;;;;;5017535;28;20899;-50
2023/05/20 05:37:15;;;;;;;4.03;2.10;;;12.60;1.00;;;;;;5015279;28;20426;-50
2023/05/20 05:39:40;;;;;;;2.60;1.70;;;12.70;1.00;;;;;;5014247;28;20188;-50
2023/05/20 05:42:06;;;;;;;7.63;2.00;;;12.90;1.00;;;;;;5014138;28;20204;-50
2023/05/20 05:44:31;;;;;;;3.50;1.83;;;13.10;1.00;;;;;;5017779;28;20234;-51
2023/05/20 05:46:57;;;;;;;5.07;1.80;;;13.10;1.00;;;;;;5014941;28;20192;-51
2023/05/20 05:49:23;;;;;;;6.03;1.97;;;13.30;1.00;;;;;;5014560;28;20254;-50
2023/05/20 05:51:50;;;;;;;7.53;2.37;;;13.40;1.00;;;;;;5017757;28;20227;-51
2023/05/20 05:54:15;;;;;;;7.17;1.70;;;13.60;1.00;;;;;;5022309;28;20184;-50
2023/05/20 05:56:41;;;;;;;2.30;1.50;;;13.80;1.00;;;;;;5017697;28;20442;-50
2023/05/20 05:59:07;;;;;;;5.27;2.30;;;14.00;1.00;;;;;;5014108;28;20196;-50
2023/05/20 06:01:32;;;;;;;6.50;2.27;;;14.10;1.00;;;;;;5014407;28;20195;-50
2023/05/20 06:03:58;;;;;;;5.47;1.90;;;14.30;1.00;;;;;;5013466;28;20260;-51
2023/05/20 06:06:23;;;;;;;2.60;1.70;;;14.50;1.00;;;;;;5014259;28;20188;-50
2023/05/20 06:08:49;;;;;;;2.50;1.53;;;14.70;1.00;;;;;;5015153;28;20192;-51
2023/05/20 06:11:15;;;;;;;5.20;2.00;;;14.80;1.00;;;;;;5017822;28;20273;-50
2023/05/20 06:13:41;;;;;;;5.47;1.70;;;14.90;1.00;;;;;;5018015;28;20529;-50
2023/05/20 06:16:06;;;;;;;5.83;1.60;;;14.80;1.00;;;;;;5017980;28;20189;-52
2023/05/20 06:18:32;;;;;;;3.00;2.20;;;15.00;1.00;;;;;;5017463;28;20463;-50
2023/05/20 06:20:58;;;;;;;6.60;2.60;;;15.20;1.00;;;;;;5018239;28;20193;-50
2023/05/20 06:23:24;;;;;;;4.87;1.83;;;15.40;1.00;;;;;;5024316;28;20704;-51
2023/05/20 06:25:50;;;;;;;4.60;1.77;;;15.50;1.00;;;;;;5017909;28;21215;-50
2023/05/20 06:28:16;;;;;;;4.33;1.90;;;15.70;1.00;;;;;;5017840;28;20567;-50
2023/05/20 06:30:42;;;;;;;6.87;2.10;;;15.80;99.90;;;;;;5017019;28;20447;-50
2023/05/20 06:33:07;;;;;;;3.87;1.83;;;15.70;99.90;;;;;;5017154;28;20539;-52
2023/05/20 06:35:33;;;;;;;3.63;2.03;;;15.80;99.90;;;;;;5016783;28;20229;-50
2023/05/20 06:38:02;;;;;;;4.73;1.60;;;15.90;99.90;;;;;;5017631;28;20194;-51
2023/05/20 06:40:28;;;;;;;3.70;1.80;;;16.00;99.90;;;;;;5017432;28;20218;-51
2023/05/20 06:42:53;;;;;;;3.93;1.90;;;16.20;99.90;;;;;;5016912;28;20507;-50
2023/05/20 06:45:20;;;;;;;5.63;1.90;;;16.40;99.90;;;;;;5020788;28;20204;-51
2023/05/20 06:47:47;;;;;;;3.47;1.80;;;16.50;99.90;;;;;;5019093;28;20381;-50
2023/05/20 06:50:13;;;;;;;5.20;1.97;;;16.80;99.90;;;;;;5017977;28;20980;-51
2023/05/20 06:52:39;;;;;;;6.67;2.70;;;17.10;99.90;;;;;;5016842;28;20433;-51
2023/05/20 06:55:05;;;;;;;7.07;2.30;;;17.50;99.90;;;;;;5017227;28;20294;-51
2023/05/20 06:57:30;;;;;;;5.87;2.43;;;17.80;99.90;;;;;;5016726;28;20225;-51
2023/05/20 06:59:56;;;;;;;4.67;2.27;;;18.20;99.90;;;;;;5017504;28;20531;-52
2023/05/20 07:02:22;;;;;;;2.90;1.60;;;18.30;99.90;;;;;;5020598;28;20549;-52
2023/05/20 07:04:48;;;;;;;7.53;2.17;;;18.40;99.90;;;;;;5016395;28;20635;-52
2023/05/20 07:07:13;;;;;;;5.63;2.13;;;18.70;99.90;;;;;;5016847;28;20439;-52
2023/05/20 07:09:39;;;;;;;4.77;2.13;;;18.90;99.90;;;;;;5016643;28;20612;-52
2023/05/20 07:12:06;;;;;;;6.13;2.20;;;19.10;99.90;;;;;;5015978;28;20233;-53
2023/05/20 07:14:31;;;;;;;3.63;2.23;;;19.00;99.90;;;;;;5020258;28;20968;-50
2023/05/20 07:16:57;;;;;;;7.90;1.90;;;19.20;99.90;;;;;;5017335;28;20438;-52
2023/05/20 07:19:22;;;;;;;3.07;2.07;;;19.20;99.90;;;;;;5015946;28;20730;-52
2023/05/20 07:21:48;;;;;;;2.53;2.30;;;19.30;99.90;;;;;;5016348;28;20214;-53
2023/05/20 07:24:17;;;;;;;9.33;2.97;;;19.40;99.90;;;;;;5016186;28;20235;-53
2023/05/20 07:26:43;;;;;;;2.70;2.20;;;19.30;99.90;;;;;;5016454;28;20528;-51
2023/05/20 07:29:09;;;;;;;4.80;2.37;;;19.20;99.90;;;;;;5016191;28;20529;-54
2023/05/20 07:31:35;;;;;;;2.60;1.83;;;19.30;99.90;;;;;;5016170;28;20241;-52
2023/05/20 07:34:00;;;;;;;5.50;2.60;;;19.30;99.90;;;;;;5016343;28;20450;-52
2023/05/20 07:36:27;;;;;;;3.90;2.30;;;19.30;99.90;;;;;;5015936;28;20455;-52
2023/05/20 07:38:53;;;;;;;4.10;2.30;;;19.30;99.90;;;;;;5016790;28;20215;-51
2023/05/20 07:41:19;;;;;;;4.17;2.13;;;19.30;99.90;;;;;;5015940;28;20468;-52
2023/05/20 07:43:45;;;;;;;9.73;2.33;;;19.30;99.90;;;;;;5019849;28;20481;-51
2023/05/20 07:46:11;;;;;;;3.50;1.70;;;19.30;99.90;;;;;;5023727;28;20634;-52
2023/05/20 07:48:36;;;;;;;7.60;2.33;;;19.30;99.90;;;;;;5020789;28;20457;-52
2023/05/20 07:51:02;;;;;;;3.87;2.37;;;19.30;99.90;;;;;;5019716;28;20239;-52
2023/05/20 07:53:27;;;;;;;5.07;2.60;;;19.40;99.90;;;;;;5017693;28;20210;-52
2023/05/20 07:55:53;;;;;;;2.27;1.87;;;19.60;99.90;;;;;;5017548;28;20321;-52
2023/05/20 07:58:19;;;;;;;4.87;2.17;;;19.80;99.90;;;;;;5019550;28;20195;-52
2023/05/20 08:00:44;;;;;;;4.80;2.70;;;19.90;99.90;;;;;;5015668;28;20183;-52
2023/05/20 08:03:10;;;;;;;4.20;2.40;;;19.80;99.90;;;;;;5015353;28;20250;-51
2023/05/20 08:05:37;;;;;;;2.83;2.00;;;20.10;99.90;;;;;;5015958;28;20188;-52
2023/05/20 08:08:03;;;;;;;2.50;2.27;;;20.40;99.90;;;;;;5016005;28;20443;-53
2023/05/20 08:10:29;;;;;;;5.40;2.47;;;20.40;99.90;;;;;;5015258;28;20499;-52
2023/05/20 08:12:54;;;;;;;3.67;2.27;;;20.30;99.90;;;;;;5016440;28;20525;-52
2023/05/20 08:15:20;;;;;;;3.37;2.27;;;20.30;99.90;;;;;;5015225;28;20640;-53
2023/05/20 08:17:46;;;;;;;3.17;2.23;;;20.50;99.90;;;;;;5015702;28;20189;-52
2023/05/20 08:20:12;;;;;;;3.90;2.47;;;20.40;99.90;;;;;;5015130;28;20191;-53
2023/05/20 08:22:38;;;;;;;3.77;2.67;;;20.10;99.90;;;;;;5019356;28;20230;-54
2023/05/20 08:25:06;;;;;;;5.83;2.50;;;19.80;99.90;;;;;;5015252;28;20462;-53
2023/05/20 08:27:32;;;;;;;3.23;2.20;;;19.70;99.90;;;;;;5018242;28;20598;-51
2023/05/20 08:29:58;;;;;;;4.43;2.20;;;20.00;99.90;;;;;;5018584;28;20548;-53
2023/05/20 08:32:23;;;;;;;3.10;2.30;;;20.40;99.90;;;;;;5014284;28;20651;-52
2023/05/20 08:34:49;;;;;;;4.30;2.20;;;20.40;99.90;;;;;;5015193;28;20191;-52
2023/05/20 08:37:15;;;;;;;2.20;2.00;;;20.50;99.90;;;;;;5014724;28;20261;-51
2023/05/20 08:39:41;;;;;;;3.80;2.30;;;20.70;99.90;;;;;;5015580;28;20187;-53
2023/05/20 08:42:10;;;;;;;3.93;2.30;;;20.60;99.90;;;;;;5015016;28;20438;-53
2023/05/20 08:44:36;;;;;;;3.47;1.80;;;20.50;99.90;;;;;;5020878;28;20203;-52
2023/05/20 08:47:03;;;;;;;4.90;2.40;;;20.80;99.90;;;;;;5021145;28;20439;-52
2023/05/20 08:49:30;;;;;;;3.90;2.40;;;20.30;99.90;;;;;;5014994;28;20187;-53
2023/05/20 08:51:57;;;;;;;2.60;2.17;;;20.00;99.90;;;;;;5015244;28;20483;-52
2023/05/20 08:54:26;;;;;;;3.30;2.10;;;19.60;99.90;;;;;;5015140;28;20529;-51
2023/05/20 08:56:52;;;;;;;2.50;2.20;;;19.40;99.90;;;;;;5014531;28;20461;-52
2023/05/20 08:59:18;;;;;;;3.40;2.07;;;19.30;99.90;;;;;;5014498;28;20449;-52
2023/05/20 09:01:44;;;;;;;4.47;2.20;;;19.80;99.90;;;;;;5020993;28;20519;-52
2023/05/20 09:04:10;;;;;;;2.17;1.97;;;20.70;99.90;;;;;;5015450;28;20721;-53
2023/05/20 09:06:42;;;;;;;6.03;1.70;;;21.30;99.90;;;;;;5014569;28;20191;-53
2023/05/20 09:09:13;;;;;;;2.80;1.87;;;22.00;99.90;;;;;;5020042;28;20200;-53
2023/05/20 09:11:40;;;;;;;2.40;1.60;;;22.00;99.90;;;;;;5019382;28;20438;-53
2023/05/20 09:14:06;;;;;;;2.00;1.60;;;22.00;99.90;;;;;;5018149;28;20442;-52
2023/05/20 09:16:31;;;;;;;2.70;2.07;;;21.90;99.90;;;;;;5019568;28;20469;-52
2023/05/20 09:18:57;;;;;;;2.00;1.80;;;21.40;99.90;;;;;;5017763;28;20643;-52
2023/05/20 09:21:27;;;;;;;2.60;1.57;;;20.90;99.90;;;;;;5019020;28;20193;-52
2023/05/20 09:23:53;;;;;;;2.70;2.10;;;21.20;99.90;;;;;;5013682;28;20220;-52
2023/05/20 09:26:18;;;;;;;3.83;2.17;;;21.30;99.90;;;;;;5014818;28;20444;-52
2023/05/20 09:28:45;;;;;;;3.27;2.00;;;21.30;99.90;;;;;;5014563;28;20432;-52
2023/05/20 09:31:13;;;;;;;6.90;2.03;;;21.00;99.90;;;;;;5014302;28;20258;-52
2023/05/20 09:33:39;;;;;;;4.23;2.47;;;20.60;99.90;;;;;;5017890;28;20430;-52
2023/05/20 09:36:09;;;;;;;6.07;1.80;;;20.60;99.90;;;;;;5014748;28;20473;-52
2023/05/20 09:38:38;;;;;;;3.23;2.27;;;20.50;99.90;;;;;;5017888;28;20444;-52
2023/05/20 09:41:26;;;;;;;2.40;2.00;;;20.10;99.90;;;;;;5020048;28;20438;-51
2023/05/20 09:43:52;;;;;;;3.20;2.10;;;19.70;99.90;;;;;;5020382;28;20469;-51
2023/05/20 09:46:19;;;;;;;2.03;1.83;;;19.40;99.90;;;;;;5022147;28;20450;-51
2023/05/20 09:48:45;;;;;;;2.50;2.17;;;19.10;99.90;;;;;;5028269;28;20960;-51
2023/05/20 09:51:12;;;;;;;4.00;2.37;;;18.80;99.90;;;;;;5022850;28;20469;-52
2023/05/20 09:53:38;;;;;;;2.93;1.70;;;18.50;99.90;;;;;;5022387;28;20442;-51
2023/05/20 09:56:03;;;;;;;2.30;2.00;;;18.30;99.90;;;;;;5017299;28;20488;-51
2023/05/20 09:58:29;;;;;;;1.70;1.60;;;18.20;99.90;;;;;;5018117;28;20250;-51
2023/05/20 10:00:55;;;;;;;2.40;2.20;;;18.10;99.90;;;;;;5019723;28;20194;-52
2023/05/20 10:03:23;;;;;;;3.33;2.00;;;18.40;99.90;;;;;;5017645;28;20837;-51
2023/05/20 10:06:09;;;;;;;3.40;1.83;;;18.60;99.90;;;;;;5020636;28;20619;-50
2023/05/20 10:09:12;;;;;;;3.80;2.10;;;18.70;99.90;;;;;;5017569;28;20521;-52
2023/05/20 10:11:50;;;;;;;3.33;1.93;;;18.50;99.90;;;;;;5018156;28;20523;-51
2023/05/20 10:14:22;;;;;;;1.83;1.67;;;18.30;99.90;;;;;;5017779;28;20435;-51
2023/05/20 10:17:07;;;;;;;3.13;2.17;;;18.10;99.90;;;;;;5027745;28;20453;-50
2023/05/20 10:19:33;;;;;;;4.70;2.07;;;18.00;99.90;;;;;;5022007;28;20454;-51
2023/05/20 10:22:07;;;;;;;5.70;1.83;;;17.80;99.90;;;;;;5021555;28;20941;-51
2023/05/20 10:24:37;;;;;;;4.03;2.00;;;17.60;99.90;;;;;;5024349;28;20448;-51
2023/05/20 10:27:10;;;;;;;4.90;2.10;;;17.60;99.90;;;;;;5018244;28;20528;-51
2023/05/20 10:29:48;;;;;;;2.27;2.07;;;17.50;99.90;;;;;;5021095;28;20433;-50
2023/05/20 10:32:26;;;;;;;4.13;2.13;;;17.40;99.90;;;;;;5017380;28;20456;-51
2023/05/20 10:34:52;;;;;;;6.40;2.80;;;17.50;99.90;;;;;;5017089;28;20429;-51
2023/05/20 10:37:26;;;;;;;2.53;1.80;;;17.70;99.90;;;;;;5017223;28;20441;-51
2023/05/20 10:40:01;;;;;;;3.93;2.20;;;17.90;99.90;;;;;;5017325;28;20726;-51
2023/05/20 10:42:29;;;;;;;2.47;2.10;;;18.00;99.90;;;;;;5020920;28;20486;-51
2023/05/20 10:44:54;;;;;;;3.67;2.10;;;18.20;99.90;;;;;;5017719;28;20453;-51
2023/05/20 10:47:20;;;;;;;4.13;2.03;;;18.30;99.90;;;;;;5017116;28;20454;-51
2023/05/20 10:49:46;;;;;;;3.07;2.30;;;18.30;99.90;;;;;;5016501;28;20198;-50
2023/05/20 10:52:19;;;;;;;2.73;1.90;;;18.30;99.90;;;;;;5017451;28;20239;-51
2023/05/20 10:54:56;;;;;;;3.63;2.27;;;18.10;99.90;;;;;;5015382;28;20506;-51
2023/05/20 10:57:23;;;;;;;3.27;2.30;;;17.90;99.90;;;;;;5020796;28;20449;-51
2023/05/20 10:59:50;;;;;;;5.53;2.50;;;17.60;99.90;;;;;;5020678;28;20469;-51
2023/05/20 11:02:16;;;;;;;5.13;2.23;;;17.60;99.90;;;;;;5016102;28;20458;-51
2023/05/20 11:04:42;;;;;;;2.13;1.93;;;17.80;99.90;;;;;;5016203;28;20473;-52
2023/05/20 11:07:08;;;;;;;2.80;2.30;;;18.20;99.90;;;;;;5016553;28;20447;-51
2023/05/20 11:09:34;;;;;;;2.63;2.10;;;18.20;99.90;;;;;;5021038;28;20529;-52
2023/05/20 11:12:00;;;;;;;4.30;2.00;;;18.40;99.90;;;;;;5020661;28;20195;-52
2023/05/20 11:14:28;;;;;;;4.30;2.30;;;18.70;99.90;;;;;;5016068;28;20580;-53
2023/05/20 11:16:57;;;;;;;1.70;1.60;;;18.70;99.90;;;;;;5016608;28;20187;-50
2023/05/20 11:19:22;;;;;;;3.13;2.13;;;18.80;99.90;;;;;;5016159;28;20450;-51
2023/05/20 11:21:48;;;;;;;4.53;2.40;;;18.80;99.90;;;;;;5016060;28;20917;-51
2023/05/20 11:24:23;;;;;;;3.50;1.90;;;18.80;99.90;;;;;;5019847;28;20223;-51
2023/05/20 11:26:49;;;;;;;2.77;2.40;;;18.60;99.90;;;;;;5015889;28;20187;-50
2023/05/20 11:29:16;;;;;;;4.13;2.37;;;18.40;99.90;;;;;;5016247;28;20945;-51
2023/05/20 11:31:42;;;;;;;2.33;2.10;;;18.10;99.90;;;;;;5015589;28;20941;-51
2023/05/20 11:34:07;;;;;;;3.33;1.67;;;17.90;99.90;;;;;;5019872;28;20433;-51
2023/05/20 11:36:33;;;;;;;4.63;2.03;;;17.70;99.90;;;;;;5019919;28;20193;-52
2023/05/20 11:38:59;;;;;;;4.23;2.47;;;17.70;99.90;;;;;;5016016;28;20214;-51
2023/05/20 11:41:26;;;;;;;5.23;1.90;;;17.70;99.90;;;;;;5016166;28;20282;-50
2023/05/20 11:43:58;;;;;;;2.40;2.07;;;17.70;99.90;;;;;;5015264;28;20976;-51
2023/05/20 11:46:24;;;;;;;4.07;2.70;;;17.70;99.90;;;;;;5016142;28;20885;-50
2023/05/20 11:48:54;;;;;;;3.47;2.10;;;17.90;99.90;;;;;;5015879;28;20462;-50
2023/05/20 11:51:26;;;;;;;3.53;2.10;;;17.80;99.90;;;;;;5018908;28;20667;-51
2023/05/20 11:53:58;;;;;;;4.03;2.50;;;17.80;99.90;;;;;;5015416;28;20440;-51
2023/05/20 11:56:23;;;;;;;2.70;2.00;;;17.70;99.90;;;;;;5019243;28;20484;-50
2023/05/20 11:58:49;;;;;;;5.07;2.63;;;17.70;99.90;;;;;;5015557;28;20450;-49
2023/05/20 12:01:14;;;;;;;4.30;2.40;;;17.60;99.90;;;;;;5016126;28;20182;-51
2023/05/20 12:03:40;;;;;;;2.30;2.03;;;17.60;99.90;;;;;;5015270;28;20317;-51
2023/05/20 12:06:06;;;;;;;3.53;2.27;;;17.60;99.90;;;;;;5015416;28;20179;-50
2023/05/20 12:08:32;;;;;;;2.20;1.90;;;17.40;99.90;;;;;;5015162;28;20194;-51
2023/05/20 12:10:57;;;;;;;5.43;2.60;;;17.30;99.90;;;;;;5015450;28;20240;-50
2023/05/20 12:13:23;;;;;;;5.33;2.13;;;17.20;99.90;;;;;;5019676;28;20677;-51
2023/05/20 12:15:48;;;;;;;5.67;2.50;;;17.20;99.90;;;;;;5016439;28;20183;-50
2023/05/20 12:18:14;;;;;;;5.37;3.20;;;17.10;99.90;;;;;;5018972;28;20183;-51
2023/05/20 12:20:41;;;;;;;3.90;2.40;;;17.20;99.90;;;;;;5018992;28;20193;-51
2023/05/20 12:23:06;;;;;;;4.50;2.30;;;17.30;99.90;;;;;;5019391;28;20301;-51
2023/05/20 12:25:32;;;;;;;3.30;2.40;;;17.50;99.90;;;;;;5014668;28;20525;-51
2023/05/20 12:27:58;;;;;;;5.13;2.17;;;17.60;99.90;;;;;;5015467;28;20182;-50
2023/05/20 12:30:24;;;;;;;4.80;2.80;;;17.70;99.90;;;;;;5014760;28;20268;-51
2023/05/20 12:32:50;;;;;;;4.53;2.40;;;17.80;99.90;;;;;;5015324;28;20190;-51
2023/05/20 12:35:16;;;;;;;5.70;2.50;;;17.70;99.90;;;;;;5015065;28;20179;-50
2023/05/20 12:37:43;;;;;;;12.20;2.80;;;17.60;99.90;;;;;;5015104;28;20438;-51
2023/05/20 12:40:11;;;;;;;5.50;2.77;;;17.30;99.90;;;;;;5015174;28;20446;-51
2023/05/20 12:42:38;;;;;;;4.33;2.87;;;17.20;99.90;;;;;;5014693;28;20563;-51
2023/05/20 12:45:05;;;;;;;2.93;2.30;;;17.20;99.90;;;;;;5014374;28;20430;-51
2023/05/20 12:47:32;;;;;;;4.70;2.30;;;17.40;99.90;;;;;;5015248;28;20453;-51
2023/05/20 12:49:57;;;;;;;4.83;2.90;;;17.50;99.90;;;;;;5014742;28;20436;-53